sensor_id;sensor_type;location;lat;lon;timestamp;temperature;humidity
15947;DHT22;8072;52.554;7.966;2022-07-06T00:01:51;14.80;99.90
15947;DHT22;8072;52.554;7.966;2022-07-06T00:04:19;14.80;99.90
15947;DHT22;8072;52.554;7.966;2022-07-06T00:06:45;14.80;99.90
15947;DHT22;8072;52.554;7.966;2022-07-06T00:09:12;14.70;99.90
15947;DHT22;8072;52.554;7.966;2022-07-06T00:11:37;14.60;99.90
15947;DHT22;8072;52.554;7.966;2022-07-06T00:14:04;14.60;99.90
15947;DHT22;8072;52.554;7.966;2022-07-06T00:16:30;14.50;99.90
15947;DHT22;8072;52.554;7.966;2022-07-06T00:18:56;14.40;99.90
15947;DHT22;8072;52.554;7.966;2022-07-06T00:21:22;14.40;99.90
15947;DHT22;8072;52.554;7.966;2022-07-06T00:23:47;14.40;99.90
15947;DHT22;8072;52.554;7.966;2022-07-06T00:26:13;14.30;99.90
15947;DHT22;8072;52.554;7.966;2022-07-06T00:28:39;14.20;99.90
15947;DHT22;8072;52.554;7.966;2022-07-06T00:31:05;14.20;99.90
15947;DHT22;8072;52.554;7.966;2022-07-06T00:33:31;14.10;99.90
15947;DHT22;8072;52.554;7.966;2022-07-06T00:35:57;14.10;99.90
15947;DHT22;8072;52.554;7.966;2022-07-06T00:38:23;14.00;99.90
15947;DHT22;8072;52.554;7.966;2022-07-06T00:40:49;14.10;99.90
15947;DHT22;8072;52.554;7.966;2022-07-06T00:43:15;14.10;99.90
15947;DHT22;8072;52.554;7.966;2022-07-06T00:45:41;14.10;99.90
15947;DHT22;8072;52.554;7.966;2022-07-06T00:48:06;14.10;99.90
15947;DHT22;8072;52.554;7.966;2022-07-06T00:50:34;14.20;99.90
15947;DHT22;8072;52.554;7.966;2022-07-06T00:53:04;14.20;99.90
15947;DHT22;8072;52.554;7.966;2022-07-06T00:55:32;14.10;99.90
15947;DHT22;8072;52.554;7.966;2022-07-06T00:58:01;14.00;99.90
15947;DHT22;8072;52.554;7.966;2022-07-06T01:00:28;13.90;99.90
15947;DHT22;8072;52.554;7.966;2022-07-06T01:02:54;13.90;99.90
15947;DHT22;8072;52.554;7.966;2022-07-06T01:05:21;13.80;99.90
15947;DHT22;8072;52.554;7.966;2022-07-06T01:07:48;13.70;99.90
15947;DHT22;8072;52.554;7.966;2022-07-06T01:10:16;13.70;99.90
15947;DHT22;8072;52.554;7.966;2022-07-06T01:12:43;13.70;99.90
15947;DHT22;8072;52.554;7.966;2022-07-06T01:15:22;13.60;99.90
15947;DHT22;8072;52.554;7.966;2022-07-06T01:17:48;13.50;99.90
15947;DHT22;8072;52.554;7.966;2022-07-06T01:20:16;13.50;99.90
15947;DHT22;8072;52.554;7.966;2022-07-06T01:22:43;13.40;99.90
15947;DHT22;8072;52.554;7.966;2022-07-06T01:25:10;13.40;99.90
15947;DHT22;8072;52.554;7.966;2022-07-06T01:27:37;13.30;99.90
15947;DHT22;8072;52.554;7.966;2022-07-06T01:32:35;13.30;99.90
15947;DHT22;8072;52.554;7.966;2022-07-06T01:35:01;13.20;99.90
15947;DHT22;8072;52.554;7.966;2022-07-06T01:37:27;13.30;99.90
15947;DHT22;8072;52.554;7.966;2022-07-06T01:39:57;13.30;99.90
15947;DHT22;8072;52.554;7.966;2022-07-06T01:42:22;13.30;99.90
15947;DHT22;8072;52.554;7.966;2022-07-06T01:44:48;13.40;99.90
15947;DHT22;8072;52.554;7.966;2022-07-06T01:47:14;13.40;99.90
15947;DHT22;8072;52.554;7.966;2022-07-06T01:49:40;13.40;99.90
15947;DHT22;8072;52.554;7.966;2022-07-06T01:52:06;13.40;99.90
15947;DHT22;8072;52.554;7.966;2022-07-06T01:54:31;13.40;99.90
15947;DHT22;8072;52.554;7.966;2022-07-06T01:56:57;13.30;99.90
15947;DHT22;8072;52.554;7.966;2022-07-06T01:59:33;13.20;99.90
15947;DHT22;8072;52.554;7.966;2022-07-06T02:05:14;13.20;99.90
15947;DHT22;8072;52.554;7.966;2022-07-06T02:11:10;13.20;99.90
15947;DHT22;8072;52.554;7.966;2022-07-06T02:14:02;13.30;99.90
15947;DHT22;8072;52.554;7.966;2022-07-06T02:16:33;13.20;99.90
15947;DHT22;8072;52.554;7.966;2022-07-06T02:19:19;13.30;99.90
15947;DHT22;8072;52.554;7.966;2022-07-06T02:22:10;13.30;99.90
15947;DHT22;8072;52.554;7.966;2022-07-06T02:27:53;13.20;99.90
15947;DHT22;8072;52.554;7.966;2022-07-06T02:30:24;13.20;99.90
15947;DHT22;8072;52.554;7.966;2022-07-06T02:32:53;13.10;99.90
15947;DHT22;8072;52.554;7.966;2022-07-06T02:35:48;13.10;99.90
15947;DHT22;8072;52.554;7.966;2022-07-06T02:38:26;13.10;99.90
15947;DHT22;8072;52.554;7.966;2022-07-06T02:41:14;13.10;99.90
15947;DHT22;8072;52.554;7.966;2022-07-06T02:43:50;13.20;99.90
15947;DHT22;8072;52.554;7.966;2022-07-06T02:49:57;13.30;99.90
15947;DHT22;8072;52.554;7.966;2022-07-06T02:52:23;13.30;99.90
15947;DHT22;8072;52.554;7.966;2022-07-06T02:55:18;13.40;99.90
15947;DHT22;8072;52.554;7.966;2022-07-06T02:57:47;13.40;99.90
15947;DHT22;8072;52.554;7.966;2022-07-06T03:00:16;13.40;99.90
15947;DHT22;8072;52.554;7.966;2022-07-06T03:02:42;13.40;99.90
15947;DHT22;8072;52.554;7.966;2022-07-06T03:05:11;13.50;99.90
15947;DHT22;8072;52.554;7.966;2022-07-06T03:08:09;13.50;99.90
15947;DHT22;8072;52.554;7.966;2022-07-06T03:11:08;13.40;99.90
15947;DHT22;8072;52.554;7.966;2022-07-06T03:13:35;13.40;99.90
15947;DHT22;8072;52.554;7.966;2022-07-06T03:16:01;13.40;99.90
15947;DHT22;8072;52.554;7.966;2022-07-06T03:18:27;13.50;99.90
15947;DHT22;8072;52.554;7.966;2022-07-06T03:20:53;13.50;99.90
15947;DHT22;8072;52.554;7.966;2022-07-06T03:23:22;13.50;99.90
15947;DHT22;8072;52.554;7.966;2022-07-06T03:26:15;13.50;99.90
15947;DHT22;8072;52.554;7.966;2022-07-06T03:28:44;13.60;99.90
15947;DHT22;8072;52.554;7.966;2022-07-06T03:31:16;13.60;99.90
15947;DHT22;8072;52.554;7.966;2022-07-06T03:33:51;13.60;99.90
15947;DHT22;8072;52.554;7.966;2022-07-06T03:39:36;13.50;99.90
15947;DHT22;8072;52.554;7.966;2022-07-06T03:42:11;13.50;99.90
15947;DHT22;8072;52.554;7.966;2022-07-06T03:45:01;13.50;99.90
15947;DHT22;8072;52.554;7.966;2022-07-06T03:47:30;13.50;99.90
15947;DHT22;8072;52.554;7.966;2022-07-06T03:49:57;13.50;99.90
15947;DHT22;8072;52.554;7.966;2022-07-06T03:52:27;13.50;99.90
15947;DHT22;8072;52.554;7.966;2022-07-06T03:55:16;13.50;99.90
15947;DHT22;8072;52.554;7.966;2022-07-06T03:57:42;13.50;99.90
15947;DHT22;8072;52.554;7.966;2022-07-06T04:00:11;13.50;99.90
15947;DHT22;8072;52.554;7.966;2022-07-06T04:11:50;13.60;99.90
15947;DHT22;8072;52.554;7.966;2022-07-06T04:14:16;13.60;99.90
15947;DHT22;8072;52.554;7.966;2022-07-06T04:16:43;13.60;99.90
15947;DHT22;8072;52.554;7.966;2022-07-06T04:19:09;13.60;99.90
15947;DHT22;8072;52.554;7.966;2022-07-06T04:21:35;13.70;99.90
15947;DHT22;8072;52.554;7.966;2022-07-06T04:24:01;13.70;99.90
15947;DHT22;8072;52.554;7.966;2022-07-06T04:26:27;13.70;99.90
15947;DHT22;8072;52.554;7.966;2022-07-06T04:28:53;13.70;99.90
15947;DHT22;8072;52.554;7.966;2022-07-06T04:31:19;13.70;99.90
15947;DHT22;8072;52.554;7.966;2022-07-06T04:33:44;13.80;99.90
15947;DHT22;8072;52.554;7.966;2022-07-06T04:36:10;13.80;99.90
15947;DHT22;8072;52.554;7.966;2022-07-06T04:38:36;13.80;99.90
15947;DHT22;8072;52.554;7.966;2022-07-06T04:41:02;13.70;99.90
15947;DHT22;8072;52.554;7.966;2022-07-06T04:43:29;13.80;99.90
15947;DHT22;8072;52.554;7.966;2022-07-06T04:45:54;13.80;99.90
15947;DHT22;8072;52.554;7.966;2022-07-06T04:48:20;13.80;99.90
15947;DHT22;8072;52.554;7.966;2022-07-06T04:50:46;13.80;99.90
15947;DHT22;8072;52.554;7.966;2022-07-06T04:53:12;13.90;99.90
15947;DHT22;8072;52.554;7.966;2022-07-06T04:55:38;13.90;99.90
15947;DHT22;8072;52.554;7.966;2022-07-06T04:58:03;13.90;99.90
15947;DHT22;8072;52.554;7.966;2022-07-06T05:00:29;13.90;99.90
15947;DHT22;8072;52.554;7.966;2022-07-06T05:02:55;14.00;99.90
15947;DHT22;8072;52.554;7.966;2022-07-06T05:05:21;14.00;99.90
15947;DHT22;8072;52.554;7.966;2022-07-06T05:07:46;14.00;99.90
15947;DHT22;8072;52.554;7.966;2022-07-06T05:10:12;14.10;99.90
15947;DHT22;8072;52.554;7.966;2022-07-06T05:12:38;14.10;99.90
15947;DHT22;8072;52.554;7.966;2022-07-06T05:15:04;14.10;99.90
15947;DHT22;8072;52.554;7.966;2022-07-06T05:17:30;14.20;99.90
15947;DHT22;8072;52.554;7.966;2022-07-06T05:19:56;14.20;99.90
15947;DHT22;8072;52.554;7.966;2022-07-06T05:22:22;14.20;99.90
15947;DHT22;8072;52.554;7.966;2022-07-06T05:24:47;14.30;99.90
15947;DHT22;8072;52.554;7.966;2022-07-06T05:27:13;14.30;99.90
15947;DHT22;8072;52.554;7.966;2022-07-06T05:29:39;14.30;99.90
15947;DHT22;8072;52.554;7.966;2022-07-06T05:32:05;14.30;99.90
15947;DHT22;8072;52.554;7.966;2022-07-06T05:34:31;14.30;99.90
15947;DHT22;8072;52.554;7.966;2022-07-06T05:36:57;14.30;99.90
15947;DHT22;8072;52.554;7.966;2022-07-06T05:39:22;14.40;99.90
15947;DHT22;8072;52.554;7.966;2022-07-06T05:41:48;14.50;99.90
15947;DHT22;8072;52.554;7.966;2022-07-06T05:44:14;14.50;99.90
15947;DHT22;8072;52.554;7.966;2022-07-06T05:46:40;14.50;99.90
15947;DHT22;8072;52.554;7.966;2022-07-06T05:49:06;14.60;99.90
15947;DHT22;8072;52.554;7.966;2022-07-06T05:51:50;14.60;99.90
15947;DHT22;8072;52.554;7.966;2022-07-06T05:54:16;14.60;99.90
15947;DHT22;8072;52.554;7.966;2022-07-06T05:56:42;14.70;99.90
15947;DHT22;8072;52.554;7.966;2022-07-06T05:59:08;14.70;99.90
15947;DHT22;8072;52.554;7.966;2022-07-06T06:01:34;14.80;99.90
15947;DHT22;8072;52.554;7.966;2022-07-06T06:04:00;14.90;99.90
15947;DHT22;8072;52.554;7.966;2022-07-06T06:06:26;14.90;99.90
15947;DHT22;8072;52.554;7.966;2022-07-06T06:08:52;14.90;99.90
15947;DHT22;8072;52.554;7.966;2022-07-06T06:11:18;14.90;99.90
15947;DHT22;8072;52.554;7.966;2022-07-06T06:13:43;14.90;99.90
15947;DHT22;8072;52.554;7.966;2022-07-06T06:16:09;15.00;99.90
15947;DHT22;8072;52.554;7.966;2022-07-06T06:18:35;15.00;99.90
15947;DHT22;8072;52.554;7.966;2022-07-06T06:21:01;15.00;99.90
15947;DHT22;8072;52.554;7.966;2022-07-06T06:23:27;15.10;99.90
15947;DHT22;8072;52.554;7.966;2022-07-06T06:25:53;15.20;99.90
15947;DHT22;8072;52.554;7.966;2022-07-06T06:28:19;15.20;99.90
15947;DHT22;8072;52.554;7.966;2022-07-06T06:30:44;15.30;99.90
15947;DHT22;8072;52.554;7.966;2022-07-06T06:33:15;15.30;99.90
15947;DHT22;8072;52.554;7.966;2022-07-06T06:35:52;15.30;99.90
15947;DHT22;8072;52.554;7.966;2022-07-06T06:38:20;15.30;99.90
15947;DHT22;8072;52.554;7.966;2022-07-06T06:40:47;15.40;99.90
15947;DHT22;8072;52.554;7.966;2022-07-06T06:43:12;15.40;99.90
15947;DHT22;8072;52.554;7.966;2022-07-06T06:45:38;15.40;99.90
15947;DHT22;8072;52.554;7.966;2022-07-06T06:48:05;15.50;99.90
15947;DHT22;8072;52.554;7.966;2022-07-06T06:50:30;15.60;99.90
15947;DHT22;8072;52.554;7.966;2022-07-06T06:52:56;15.60;99.90
15947;DHT22;8072;52.554;7.966;2022-07-06T06:55:22;15.60;99.90
15947;DHT22;8072;52.554;7.966;2022-07-06T06:57:48;15.60;99.90
15947;DHT22;8072;52.554;7.966;2022-07-06T07:00:14;15.60;99.90
15947;DHT22;8072;52.554;7.966;2022-07-06T07:02:39;15.70;99.90
15947;DHT22;8072;52.554;7.966;2022-07-06T07:05:06;15.80;99.90
15947;DHT22;8072;52.554;7.966;2022-07-06T07:07:32;15.80;99.90
15947;DHT22;8072;52.554;7.966;2022-07-06T07:09:59;15.80;99.90
15947;DHT22;8072;52.554;7.966;2022-07-06T07:12:24;15.90;99.90
15947;DHT22;8072;52.554;7.966;2022-07-06T07:14:50;16.00;99.90
15947;DHT22;8072;52.554;7.966;2022-07-06T07:17:16;16.10;99.90
15947;DHT22;8072;52.554;7.966;2022-07-06T07:19:42;16.10;99.90
15947;DHT22;8072;52.554;7.966;2022-07-06T07:22:08;16.30;99.90
15947;DHT22;8072;52.554;7.966;2022-07-06T07:24:34;16.30;99.90
15947;DHT22;8072;52.554;7.966;2022-07-06T07:27:01;16.40;99.90
15947;DHT22;8072;52.554;7.966;2022-07-06T07:29:26;16.50;99.90
15947;DHT22;8072;52.554;7.966;2022-07-06T07:31:52;16.70;99.90
15947;DHT22;8072;52.554;7.966;2022-07-06T07:34:18;16.80;99.90
15947;DHT22;8072;52.554;7.966;2022-07-06T07:36:44;16.80;99.90
15947;DHT22;8072;52.554;7.966;2022-07-06T07:39:09;16.90;99.90
15947;DHT22;8072;52.554;7.966;2022-07-06T07:41:35;17.00;99.90
15947;DHT22;8072;52.554;7.966;2022-07-06T07:44:01;17.10;99.90
15947;DHT22;8072;52.554;7.966;2022-07-06T07:46:27;17.10;99.90
15947;DHT22;8072;52.554;7.966;2022-07-06T07:48:53;17.10;99.90
15947;DHT22;8072;52.554;7.966;2022-07-06T07:51:18;17.10;99.90
15947;DHT22;8072;52.554;7.966;2022-07-06T07:53:45;17.10;99.90
15947;DHT22;8072;52.554;7.966;2022-07-06T07:56:11;17.10;99.90
15947;DHT22;8072;52.554;7.966;2022-07-06T07:58:37;17.20;99.90
15947;DHT22;8072;52.554;7.966;2022-07-06T08:01:03;17.20;99.90
15947;DHT22;8072;52.554;7.966;2022-07-06T08:03:30;17.30;99.90
15947;DHT22;8072;52.554;7.966;2022-07-06T08:05:57;17.30;99.90
15947;DHT22;8072;52.554;7.966;2022-07-06T08:08:23;17.40;99.90
15947;DHT22;8072;52.554;7.966;2022-07-06T08:10:51;17.30;99.90
15947;DHT22;8072;52.554;7.966;2022-07-06T08:13:17;17.30;99.90
15947;DHT22;8072;52.554;7.966;2022-07-06T08:15:43;17.30;99.90
15947;DHT22;8072;52.554;7.966;2022-07-06T08:18:09;17.30;99.90
15947;DHT22;8072;52.554;7.966;2022-07-06T08:20:35;17.20;99.90
15947;DHT22;8072;52.554;7.966;2022-07-06T08:23:02;17.20;99.90
15947;DHT22;8072;52.554;7.966;2022-07-06T08:25:28;17.20;99.90
15947;DHT22;8072;52.554;7.966;2022-07-06T08:27:54;17.20;99.90
15947;DHT22;8072;52.554;7.966;2022-07-06T08:30:20;17.20;99.90
15947;DHT22;8072;52.554;7.966;2022-07-06T08:32:46;17.20;99.90
15947;DHT22;8072;52.554;7.966;2022-07-06T08:35:12;17.30;99.90
15947;DHT22;8072;52.554;7.966;2022-07-06T08:37:38;17.20;99.90
15947;DHT22;8072;52.554;7.966;2022-07-06T08:40:05;17.30;99.90
15947;DHT22;8072;52.554;7.966;2022-07-06T08:42:35;17.50;99.90
15947;DHT22;8072;52.554;7.966;2022-07-06T08:45:04;17.60;99.90
15947;DHT22;8072;52.554;7.966;2022-07-06T08:47:31;17.50;99.90
15947;DHT22;8072;52.554;7.966;2022-07-06T08:49:57;17.50;99.90
15947;DHT22;8072;52.554;7.966;2022-07-06T08:52:23;17.60;99.90
15947;DHT22;8072;52.554;7.966;2022-07-06T08:54:50;17.50;99.90
15947;DHT22;8072;52.554;7.966;2022-07-06T08:57:16;17.60;99.90
15947;DHT22;8072;52.554;7.966;2022-07-06T08:59:42;17.60;99.90
15947;DHT22;8072;52.554;7.966;2022-07-06T09:02:10;17.70;99.90
15947;DHT22;8072;52.554;7.966;2022-07-06T09:04:37;17.70;99.90
15947;DHT22;8072;52.554;7.966;2022-07-06T09:07:04;17.80;99.90
15947;DHT22;8072;52.554;7.966;2022-07-06T09:09:30;17.90;99.90
15947;DHT22;8072;52.554;7.966;2022-07-06T09:11:57;17.80;99.90
15947;DHT22;8072;52.554;7.966;2022-07-06T09:14:23;17.90;99.90
15947;DHT22;8072;52.554;7.966;2022-07-06T09:17:00;18.00;99.90
15947;DHT22;8072;52.554;7.966;2022-07-06T09:19:28;18.20;99.90
15947;DHT22;8072;52.554;7.966;2022-07-06T09:21:53;18.30;99.90
15947;DHT22;8072;52.554;7.966;2022-07-06T09:24:19;18.30;99.90
15947;DHT22;8072;52.554;7.966;2022-07-06T09:26:47;18.30;99.90
15947;DHT22;8072;52.554;7.966;2022-07-06T09:29:13;18.20;99.90
15947;DHT22;8072;52.554;7.966;2022-07-06T09:31:40;18.20;99.90
15947;DHT22;8072;52.554;7.966;2022-07-06T09:34:07;18.30;99.90
15947;DHT22;8072;52.554;7.966;2022-07-06T09:36:44;18.30;99.90
15947;DHT22;8072;52.554;7.966;2022-07-06T09:41:42;18.20;99.90
15947;DHT22;8072;52.554;7.966;2022-07-06T09:44:09;18.20;99.90
15947;DHT22;8072;52.554;7.966;2022-07-06T09:46:43;18.10;99.90
15947;DHT22;8072;52.554;7.966;2022-07-06T09:49:11;18.10;99.90
15947;DHT22;8072;52.554;7.966;2022-07-06T09:51:38;18.00;99.90
15947;DHT22;8072;52.554;7.966;2022-07-06T09:54:06;18.00;99.90
15947;DHT22;8072;52.554;7.966;2022-07-06T09:56:40;18.20;99.90
15947;DHT22;8072;52.554;7.966;2022-07-06T09:59:13;18.30;99.90
15947;DHT22;8072;52.554;7.966;2022-07-06T10:01:40;18.30;99.90
15947;DHT22;8072;52.554;7.966;2022-07-06T10:04:07;18.30;99.90
15947;DHT22;8072;52.554;7.966;2022-07-06T10:06:33;18.20;99.90
15947;DHT22;8072;52.554;7.966;2022-07-06T10:09:00;18.10;99.90
15947;DHT22;8072;52.554;7.966;2022-07-06T10:11:28;18.20;99.90
15947;DHT22;8072;52.554;7.966;2022-07-06T10:13:57;18.20;99.90
15947;DHT22;8072;52.554;7.966;2022-07-06T10:16:24;18.20;99.90
15947;DHT22;8072;52.554;7.966;2022-07-06T10:18:52;18.30;99.90
15947;DHT22;8072;52.554;7.966;2022-07-06T10:21:20;18.50;99.90
15947;DHT22;8072;52.554;7.966;2022-07-06T10:23:47;18.60;99.90
15947;DHT22;8072;52.554;7.966;2022-07-06T10:26:14;18.80;99.90
15947;DHT22;8072;52.554;7.966;2022-07-06T10:28:42;18.80;99.90
15947;DHT22;8072;52.554;7.966;2022-07-06T10:31:09;18.70;99.90
15947;DHT22;8072;52.554;7.966;2022-07-06T10:33:35;18.60;99.90
15947;DHT22;8072;52.554;7.966;2022-07-06T10:36:02;18.50;99.90
15947;DHT22;8072;52.554;7.966;2022-07-06T10:38:33;18.50;99.90
15947;DHT22;8072;52.554;7.966;2022-07-06T10:41:04;18.60;99.90
15947;DHT22;8072;52.554;7.966;2022-07-06T10:46:14;18.70;99.90
15947;DHT22;8072;52.554;7.966;2022-07-06T10:48:44;18.80;99.90
15947;DHT22;8072;52.554;7.966;2022-07-06T10:51:26;19.00;99.90
15947;DHT22;8072;52.554;7.966;2022-07-06T10:54:00;19.30;99.90
15947;DHT22;8072;52.554;7.966;2022-07-06T10:56:43;19.60;99.90
15947;DHT22;8072;52.554;7.966;2022-07-06T10:59:15;19.80;99.90
15947;DHT22;8072;52.554;7.966;2022-07-06T11:04:56;19.80;99.90
15947;DHT22;8072;52.554;7.966;2022-07-06T11:07:22;19.90;99.90
15947;DHT22;8072;52.554;7.966;2022-07-06T11:09:59;19.80;99.90
15947;DHT22;8072;52.554;7.966;2022-07-06T11:12:25;19.80;99.90
15947;DHT22;8072;52.554;7.966;2022-07-06T11:14:52;19.60;99.90
15947;DHT22;8072;52.554;7.966;2022-07-06T11:17:18;19.50;99.90
15947;DHT22;8072;52.554;7.966;2022-07-06T11:22:21;19.10;99.90
15947;DHT22;8072;52.554;7.966;2022-07-06T11:24:47;19.20;99.90
15947;DHT22;8072;52.554;7.966;2022-07-06T11:27:13;19.50;99.90
15947;DHT22;8072;52.554;7.966;2022-07-06T11:29:40;19.50;99.90
15947;DHT22;8072;52.554;7.966;2022-07-06T11:32:08;19.50;99.90
15947;DHT22;8072;52.554;7.966;2022-07-06T11:34:41;19.60;99.90
15947;DHT22;8072;52.554;7.966;2022-07-06T11:37:14;19.70;99.90
15947;DHT22;8072;52.554;7.966;2022-07-06T11:39:41;20.10;99.90
15947;DHT22;8072;52.554;7.966;2022-07-06T11:42:09;20.20;99.90
15947;DHT22;8072;52.554;7.966;2022-07-06T11:44:36;20.10;99.90
15947;DHT22;8072;52.554;7.966;2022-07-06T11:47:03;20.10;99.90
15947;DHT22;8072;52.554;7.966;2022-07-06T11:49:30;20.00;99.90
15947;DHT22;8072;52.554;7.966;2022-07-06T11:51:56;20.00;99.90
15947;DHT22;8072;52.554;7.966;2022-07-06T11:54:24;19.90;99.90
15947;DHT22;8072;52.554;7.966;2022-07-06T11:56:50;19.70;99.90
15947;DHT22;8072;52.554;7.966;2022-07-06T11:59:25;19.60;99.90
15947;DHT22;8072;52.554;7.966;2022-07-06T12:02:01;19.60;99.90
15947;DHT22;8072;52.554;7.966;2022-07-06T12:04:29;19.50;99.90
15947;DHT22;8072;52.554;7.966;2022-07-06T12:06:55;19.60;99.90
15947;DHT22;8072;52.554;7.966;2022-07-06T12:09:21;19.90;99.90
15947;DHT22;8072;52.554;7.966;2022-07-06T12:11:47;20.20;99.90
15947;DHT22;8072;52.554;7.966;2022-07-06T12:14:16;20.60;99.90
15947;DHT22;8072;52.554;7.966;2022-07-06T12:16:42;20.80;99.90
15947;DHT22;8072;52.554;7.966;2022-07-06T12:19:08;21.00;99.90
15947;DHT22;8072;52.554;7.966;2022-07-06T12:24:16;21.30;99.90
15947;DHT22;8072;52.554;7.966;2022-07-06T12:26:42;21.00;99.90
15947;DHT22;8072;52.554;7.966;2022-07-06T12:29:09;20.80;99.90
15947;DHT22;8072;52.554;7.966;2022-07-06T12:34:18;20.90;99.90
15947;DHT22;8072;52.554;7.966;2022-07-06T12:36:54;21.10;99.90
15947;DHT22;8072;52.554;7.966;2022-07-06T12:39:26;21.40;99.90
15947;DHT22;8072;52.554;7.966;2022-07-06T12:42:05;21.40;99.90
15947;DHT22;8072;52.554;7.966;2022-07-06T12:44:31;21.70;99.90
15947;DHT22;8072;52.554;7.966;2022-07-06T12:47:05;21.80;99.90
15947;DHT22;8072;52.554;7.966;2022-07-06T12:49:32;22.00;99.90
15947;DHT22;8072;52.554;7.966;2022-07-06T12:54:45;21.50;99.90
15947;DHT22;8072;52.554;7.966;2022-07-06T12:57:19;21.50;99.90
15947;DHT22;8072;52.554;7.966;2022-07-06T13:02:25;21.50;99.90
15947;DHT22;8072;52.554;7.966;2022-07-06T13:05:06;21.50;99.90
15947;DHT22;8072;52.554;7.966;2022-07-06T13:07:34;21.50;99.90
15947;DHT22;8072;52.554;7.966;2022-07-06T13:10:05;21.30;99.90
15947;DHT22;8072;52.554;7.966;2022-07-06T13:12:31;21.10;99.90
15947;DHT22;8072;52.554;7.966;2022-07-06T13:14:57;20.90;99.90
15947;DHT22;8072;52.554;7.966;2022-07-06T13:17:22;20.80;99.90
15947;DHT22;8072;52.554;7.966;2022-07-06T13:19:49;20.90;99.90
15947;DHT22;8072;52.554;7.966;2022-07-06T13:22:14;21.10;99.90
15947;DHT22;8072;52.554;7.966;2022-07-06T13:24:40;21.00;99.90
15947;DHT22;8072;52.554;7.966;2022-07-06T13:27:06;20.90;99.90
15947;DHT22;8072;52.554;7.966;2022-07-06T13:29:32;20.90;99.90
15947;DHT22;8072;52.554;7.966;2022-07-06T13:31:58;20.80;99.90
15947;DHT22;8072;52.554;7.966;2022-07-06T13:34:24;20.70;99.90
15947;DHT22;8072;52.554;7.966;2022-07-06T13:36:51;20.70;99.90
15947;DHT22;8072;52.554;7.966;2022-07-06T13:39:17;20.70;99.90
15947;DHT22;8072;52.554;7.966;2022-07-06T13:41:43;20.70;99.90
15947;DHT22;8072;52.554;7.966;2022-07-06T13:44:09;20.60;99.90
15947;DHT22;8072;52.554;7.966;2022-07-06T13:46:37;20.70;99.90
15947;DHT22;8072;52.554;7.966;2022-07-06T13:49:04;20.70;99.90
15947;DHT22;8072;52.554;7.966;2022-07-06T13:51:31;20.70;99.90
15947;DHT22;8072;52.554;7.966;2022-07-06T13:53:59;20.60;99.90
15947;DHT22;8072;52.554;7.966;2022-07-06T13:56:25;20.60;99.90
15947;DHT22;8072;52.554;7.966;2022-07-06T13:58:51;20.60;99.90
15947;DHT22;8072;52.554;7.966;2022-07-06T14:01:17;20.50;99.90
15947;DHT22;8072;52.554;7.966;2022-07-06T14:03:43;20.40;99.90
15947;DHT22;8072;52.554;7.966;2022-07-06T14:06:09;20.30;99.90
15947;DHT22;8072;52.554;7.966;2022-07-06T14:08:36;20.40;99.90
15947;DHT22;8072;52.554;7.966;2022-07-06T14:11:03;20.40;99.90
15947;DHT22;8072;52.554;7.966;2022-07-06T14:13:29;20.30;99.90
15947;DHT22;8072;52.554;7.966;2022-07-06T14:15:56;20.30;99.90
15947;DHT22;8072;52.554;7.966;2022-07-06T14:18:22;20.40;99.90
15947;DHT22;8072;52.554;7.966;2022-07-06T14:20:49;20.40;99.90
15947;DHT22;8072;52.554;7.966;2022-07-06T14:23:16;20.30;99.90
15947;DHT22;8072;52.554;7.966;2022-07-06T14:25:42;20.40;99.90
15947;DHT22;8072;52.554;7.966;2022-07-06T14:28:09;20.50;99.90
15947;DHT22;8072;52.554;7.966;2022-07-06T14:30:35;20.50;99.90
15947;DHT22;8072;52.554;7.966;2022-07-06T14:33:03;20.50;99.90
15947;DHT22;8072;52.554;7.966;2022-07-06T14:35:36;20.40;99.90
15947;DHT22;8072;52.554;7.966;2022-07-06T14:38:03;20.20;99.90
15947;DHT22;8072;52.554;7.966;2022-07-06T14:40:30;20.20;99.90
15947;DHT22;8072;52.554;7.966;2022-07-06T14:42:57;20.10;99.90
15947;DHT22;8072;52.554;7.966;2022-07-06T14:45:23;20.20;99.90
15947;DHT22;8072;52.554;7.966;2022-07-06T14:47:49;20.10;99.90
15947;DHT22;8072;52.554;7.966;2022-07-06T14:50:15;20.30;99.90
15947;DHT22;8072;52.554;7.966;2022-07-06T14:52:41;20.40;99.90
15947;DHT22;8072;52.554;7.966;2022-07-06T14:55:07;20.50;99.90
15947;DHT22;8072;52.554;7.966;2022-07-06T14:57:33;20.50;99.90
15947;DHT22;8072;52.554;7.966;2022-07-06T14:59:59;20.50;99.90
15947;DHT22;8072;52.554;7.966;2022-07-06T15:02:24;20.50;99.90
15947;DHT22;8072;52.554;7.966;2022-07-06T15:04:50;20.40;99.90
15947;DHT22;8072;52.554;7.966;2022-07-06T15:07:16;20.40;99.90
15947;DHT22;8072;52.554;7.966;2022-07-06T15:09:42;20.50;99.90
15947;DHT22;8072;52.554;7.966;2022-07-06T15:12:08;20.40;99.90
15947;DHT22;8072;52.554;7.966;2022-07-06T15:14:34;20.40;99.90
15947;DHT22;8072;52.554;7.966;2022-07-06T15:17:01;20.30;99.90
15947;DHT22;8072;52.554;7.966;2022-07-06T15:19:26;20.40;99.90
15947;DHT22;8072;52.554;7.966;2022-07-06T15:21:53;20.30;99.90
15947;DHT22;8072;52.554;7.966;2022-07-06T15:24:19;20.20;99.90
15947;DHT22;8072;52.554;7.966;2022-07-06T15:26:45;20.20;99.90
15947;DHT22;8072;52.554;7.966;2022-07-06T15:29:11;20.30;99.90
15947;DHT22;8072;52.554;7.966;2022-07-06T15:31:37;20.30;99.90
15947;DHT22;8072;52.554;7.966;2022-07-06T15:34:03;20.40;99.90
15947;DHT22;8072;52.554;7.966;2022-07-06T15:36:28;20.40;99.90
15947;DHT22;8072;52.554;7.966;2022-07-06T15:38:54;20.40;99.90
15947;DHT22;8072;52.554;7.966;2022-07-06T15:41:20;20.50;99.90
15947;DHT22;8072;52.554;7.966;2022-07-06T15:43:46;20.40;99.90
15947;DHT22;8072;52.554;7.966;2022-07-06T15:46:12;20.40;99.90
15947;DHT22;8072;52.554;7.966;2022-07-06T15:48:38;20.30;99.90
15947;DHT22;8072;52.554;7.966;2022-07-06T15:51:04;20.20;99.90
15947;DHT22;8072;52.554;7.966;2022-07-06T15:53:30;20.20;99.90
15947;DHT22;8072;52.554;7.966;2022-07-06T15:55:57;20.20;99.90
15947;DHT22;8072;52.554;7.966;2022-07-06T15:58:24;20.30;99.90
15947;DHT22;8072;52.554;7.966;2022-07-06T16:00:50;20.20;99.90
15947;DHT22;8072;52.554;7.966;2022-07-06T16:03:16;20.30;99.90
15947;DHT22;8072;52.554;7.966;2022-07-06T16:05:42;20.30;99.90
15947;DHT22;8072;52.554;7.966;2022-07-06T16:08:08;20.30;99.90
15947;DHT22;8072;52.554;7.966;2022-07-06T16:10:33;20.10;99.90
15947;DHT22;8072;52.554;7.966;2022-07-06T16:13:00;20.00;99.90
15947;DHT22;8072;52.554;7.966;2022-07-06T16:15:26;20.10;99.90
15947;DHT22;8072;52.554;7.966;2022-07-06T16:17:52;20.00;99.90
15947;DHT22;8072;52.554;7.966;2022-07-06T16:20:18;20.00;99.90
15947;DHT22;8072;52.554;7.966;2022-07-06T16:22:44;20.10;99.90
15947;DHT22;8072;52.554;7.966;2022-07-06T16:25:11;20.10;99.90
15947;DHT22;8072;52.554;7.966;2022-07-06T16:27:37;20.10;99.90
15947;DHT22;8072;52.554;7.966;2022-07-06T16:30:07;20.00;99.90
15947;DHT22;8072;52.554;7.966;2022-07-06T16:32:34;20.00;99.90
15947;DHT22;8072;52.554;7.966;2022-07-06T16:35:00;19.90;99.90
15947;DHT22;8072;52.554;7.966;2022-07-06T16:37:26;19.90;99.90
15947;DHT22;8072;52.554;7.966;2022-07-06T16:39:52;19.90;99.90